sensor_id;sensor_type;location;lat;lon;timestamp;temperature;humidity
20885;DHT22;10602;48.000;9.654;2023-04-01T00:02:06;6.40;99.90
20885;DHT22;10602;48.000;9.654;2023-04-01T00:04:33;6.40;99.90
20885;DHT22;10602;48.000;9.654;2023-04-01T00:07:01;6.40;99.90
20885;DHT22;10602;48.000;9.654;2023-04-01T00:09:28;6.40;99.90
20885;DHT22;10602;48.000;9.654;2023-04-01T00:11:56;6.40;99.90
20885;DHT22;10602;48.000;9.654;2023-04-01T00:14:23;6.40;99.90
20885;DHT22;10602;48.000;9.654;2023-04-01T00:16:51;6.40;99.90
20885;DHT22;10602;48.000;9.654;2023-04-01T00:19:19;6.40;99.90
20885;DHT22;10602;48.000;9.654;2023-04-01T00:21:46;6.30;99.90
20885;DHT22;10602;48.000;9.654;2023-04-01T00:24:15;6.30;99.90
20885;DHT22;10602;48.000;9.654;2023-04-01T00:26:43;6.30;99.90
20885;DHT22;10602;48.000;9.654;2023-04-01T00:29:11;6.30;99.90
20885;DHT22;10602;48.000;9.654;2023-04-01T00:31:38;6.30;99.90
20885;DHT22;10602;48.000;9.654;2023-04-01T00:34:06;6.30;99.90
20885;DHT22;10602;48.000;9.654;2023-04-01T00:36:35;6.30;99.90
20885;DHT22;10602;48.000;9.654;2023-04-01T00:39:04;6.30;99.90
20885;DHT22;10602;48.000;9.654;2023-04-01T00:41:34;6.30;99.90
20885;DHT22;10602;48.000;9.654;2023-04-01T00:44:26;6.30;99.90
20885;DHT22;10602;48.000;9.654;2023-04-01T00:46:54;6.30;99.90
20885;DHT22;10602;48.000;9.654;2023-04-01T00:49:29;6.30;99.90
20885;DHT22;10602;48.000;9.654;2023-04-01T00:51:56;6.30;99.90
20885;DHT22;10602;48.000;9.654;2023-04-01T00:54:27;6.30;99.90
20885;DHT22;10602;48.000;9.654;2023-04-01T00:57:01;6.30;99.90
20885;DHT22;10602;48.000;9.654;2023-04-01T00:59:40;6.30;99.90
20885;DHT22;10602;48.000;9.654;2023-04-01T01:02:07;6.30;99.90
20885;DHT22;10602;48.000;9.654;2023-04-01T01:04:37;6.30;99.90
20885;DHT22;10602;48.000;9.654;2023-04-01T01:10:18;6.20;99.90
20885;DHT22;10602;48.000;9.654;2023-04-01T01:15:54;6.20;99.90
20885;DHT22;10602;48.000;9.654;2023-04-01T01:18:35;6.10;99.90
20885;DHT22;10602;48.000;9.654;2023-04-01T01:26:57;6.10;99.90
20885;DHT22;10602;48.000;9.654;2023-04-01T01:32:55;6.00;99.90
20885;DHT22;10602;48.000;9.654;2023-04-01T01:35:52;5.90;99.90
20885;DHT22;10602;48.000;9.654;2023-04-01T01:38:26;5.90;99.90
20885;DHT22;10602;48.000;9.654;2023-04-01T01:40:58;5.80;99.90
20885;DHT22;10602;48.000;9.654;2023-04-01T01:46:16;5.80;99.90
20885;DHT22;10602;48.000;9.654;2023-04-01T01:48:43;5.70;99.90
20885;DHT22;10602;48.000;9.654;2023-04-01T01:51:13;5.60;99.90
20885;DHT22;10602;48.000;9.654;2023-04-01T01:53:43;5.60;99.90
20885;DHT22;10602;48.000;9.654;2023-04-01T01:56:22;5.50;99.90
20885;DHT22;10602;48.000;9.654;2023-04-01T01:59:03;5.50;99.90
20885;DHT22;10602;48.000;9.654;2023-04-01T02:01:37;5.40;99.90
20885;DHT22;10602;48.000;9.654;2023-04-01T02:04:07;5.40;99.90
20885;DHT22;10602;48.000;9.654;2023-04-01T02:06:39;5.50;99.90
20885;DHT22;10602;48.000;9.654;2023-04-01T02:09:09;5.50;99.90
20885;DHT22;10602;48.000;9.654;2023-04-01T02:11:56;5.50;99.90
20885;DHT22;10602;48.000;9.654;2023-04-01T02:15:11;5.50;99.90
20885;DHT22;10602;48.000;9.654;2023-04-01T02:16:57;5.40;99.90
20885;DHT22;10602;48.000;9.654;2023-04-01T02:19:35;5.40;99.90
20885;DHT22;10602;48.000;9.654;2023-04-01T02:22:05;5.40;99.90
20885;DHT22;10602;48.000;9.654;2023-04-01T02:24:43;5.40;99.90
20885;DHT22;10602;48.000;9.654;2023-04-01T02:27:16;5.40;99.90
20885;DHT22;10602;48.000;9.654;2023-04-01T02:29:50;5.40;99.90
20885;DHT22;10602;48.000;9.654;2023-04-01T02:32:15;5.40;99.90
20885;DHT22;10602;48.000;9.654;2023-04-01T02:34:46;5.40;99.90
20885;DHT22;10602;48.000;9.654;2023-04-01T02:37:20;5.40;99.90
20885;DHT22;10602;48.000;9.654;2023-04-01T02:40:05;5.40;99.90
20885;DHT22;10602;48.000;9.654;2023-04-01T02:42:24;5.40;99.90
20885;DHT22;10602;48.000;9.654;2023-04-01T02:44:52;5.40;99.90
20885;DHT22;10602;48.000;9.654;2023-04-01T02:47:28;5.50;99.90
20885;DHT22;10602;48.000;9.654;2023-04-01T02:49:57;5.50;99.90
20885;DHT22;10602;48.000;9.654;2023-04-01T02:52:26;5.60;99.90
20885;DHT22;10602;48.000;9.654;2023-04-01T02:54:54;5.60;99.90
20885;DHT22;10602;48.000;9.654;2023-04-01T02:57:23;5.70;99.90
20885;DHT22;10602;48.000;9.654;2023-04-01T02:59:53;5.70;99.90
20885;DHT22;10602;48.000;9.654;2023-04-01T03:02:22;5.70;99.90
20885;DHT22;10602;48.000;9.654;2023-04-01T03:04:55;5.70;99.90
20885;DHT22;10602;48.000;9.654;2023-04-01T03:07:28;5.70;99.90
20885;DHT22;10602;48.000;9.654;2023-04-01T03:09:57;5.70;99.90
20885;DHT22;10602;48.000;9.654;2023-04-01T03:12:29;5.70;99.90
20885;DHT22;10602;48.000;9.654;2023-04-01T03:15:01;5.80;99.90
20885;DHT22;10602;48.000;9.654;2023-04-01T03:17:39;5.80;99.90
20885;DHT22;10602;48.000;9.654;2023-04-01T03:20:10;5.80;99.90
20885;DHT22;10602;48.000;9.654;2023-04-01T03:22:47;5.80;99.90
20885;DHT22;10602;48.000;9.654;2023-04-01T03:25:14;5.80;99.90
20885;DHT22;10602;48.000;9.654;2023-04-01T03:27:43;5.80;99.90
20885;DHT22;10602;48.000;9.654;2023-04-01T03:30:12;5.80;99.90
20885;DHT22;10602;48.000;9.654;2023-04-01T03:32:42;5.80;99.90
20885;DHT22;10602;48.000;9.654;2023-04-01T03:35:15;5.80;99.90
20885;DHT22;10602;48.000;9.654;2023-04-01T03:37:43;5.80;99.90
20885;DHT22;10602;48.000;9.654;2023-04-01T03:40:17;5.80;99.90
20885;DHT22;10602;48.000;9.654;2023-04-01T03:42:47;5.80;99.90
20885;DHT22;10602;48.000;9.654;2023-04-01T03:45:16;5.80;99.90
20885;DHT22;10602;48.000;9.654;2023-04-01T03:47:50;5.80;99.90
20885;DHT22;10602;48.000;9.654;2023-04-01T03:50:26;5.80;99.90
20885;DHT22;10602;48.000;9.654;2023-04-01T03:52:53;5.80;99.90
20885;DHT22;10602;48.000;9.654;2023-04-01T03:55:22;5.80;99.90
20885;DHT22;10602;48.000;9.654;2023-04-01T03:57:55;5.80;99.90
20885;DHT22;10602;48.000;9.654;2023-04-01T04:00:24;5.80;99.90
20885;DHT22;10602;48.000;9.654;2023-04-01T04:02:52;5.80;99.90
20885;DHT22;10602;48.000;9.654;2023-04-01T04:05:25;5.80;99.90
20885;DHT22;10602;48.000;9.654;2023-04-01T04:07:55;5.80;99.90
20885;DHT22;10602;48.000;9.654;2023-04-01T04:10:23;5.80;99.90
20885;DHT22;10602;48.000;9.654;2023-04-01T04:12:52;5.80;99.90
20885;DHT22;10602;48.000;9.654;2023-04-01T04:15:22;5.70;99.90
20885;DHT22;10602;48.000;9.654;2023-04-01T04:17:51;5.70;99.90
20885;DHT22;10602;48.000;9.654;2023-04-01T04:20:22;5.60;99.90
20885;DHT22;10602;48.000;9.654;2023-04-01T04:22:50;5.60;99.90
20885;DHT22;10602;48.000;9.654;2023-04-01T04:25:19;5.70;99.90
20885;DHT22;10602;48.000;9.654;2023-04-01T04:27:59;5.70;99.90
20885;DHT22;10602;48.000;9.654;2023-04-01T04:30:32;5.60;99.90
20885;DHT22;10602;48.000;9.654;2023-04-01T04:33:05;5.70;99.90
20885;DHT22;10602;48.000;9.654;2023-04-01T04:35:34;5.70;99.90
20885;DHT22;10602;48.000;9.654;2023-04-01T04:38:03;5.60;99.90
20885;DHT22;10602;48.000;9.654;2023-04-01T04:40:32;5.60;99.90
20885;DHT22;10602;48.000;9.654;2023-04-01T04:45:42;5.70;99.90
20885;DHT22;10602;48.000;9.654;2023-04-01T04:48:30;5.70;99.90
20885;DHT22;10602;48.000;9.654;2023-04-01T04:51:01;5.80;99.90
20885;DHT22;10602;48.000;9.654;2023-04-01T04:53:32;5.80;99.90
20885;DHT22;10602;48.000;9.654;2023-04-01T04:56:01;5.80;99.90
20885;DHT22;10602;48.000;9.654;2023-04-01T04:58:31;5.80;99.90
20885;DHT22;10602;48.000;9.654;2023-04-01T05:01:12;5.80;99.90
20885;DHT22;10602;48.000;9.654;2023-04-01T05:03:48;5.80;99.90
20885;DHT22;10602;48.000;9.654;2023-04-01T05:06:19;5.90;99.90
20885;DHT22;10602;48.000;9.654;2023-04-01T05:08:49;5.90;99.90
20885;DHT22;10602;48.000;9.654;2023-04-01T05:11:19;5.90;99.90
20885;DHT22;10602;48.000;9.654;2023-04-01T05:13:49;5.90;99.90
20885;DHT22;10602;48.000;9.654;2023-04-01T05:16:19;5.90;99.90
20885;DHT22;10602;48.000;9.654;2023-04-01T05:18:48;5.90;99.90
20885;DHT22;10602;48.000;9.654;2023-04-01T05:21:16;5.80;99.90
20885;DHT22;10602;48.000;9.654;2023-04-01T05:23:43;5.80;99.90
20885;DHT22;10602;48.000;9.654;2023-04-01T05:26:13;5.80;99.90
20885;DHT22;10602;48.000;9.654;2023-04-01T05:28:42;5.80;99.90
20885;DHT22;10602;48.000;9.654;2023-04-01T05:31:10;5.80;99.90
20885;DHT22;10602;48.000;9.654;2023-04-01T05:33:37;5.80;99.90
20885;DHT22;10602;48.000;9.654;2023-04-01T05:36:12;5.80;99.90
20885;DHT22;10602;48.000;9.654;2023-04-01T05:38:39;5.90;98.20
20885;DHT22;10602;48.000;9.654;2023-04-01T05:41:12;5.90;99.90
20885;DHT22;10602;48.000;9.654;2023-04-01T05:43:37;5.90;99.90
20885;DHT22;10602;48.000;9.654;2023-04-01T05:46:06;5.90;99.90
20885;DHT22;10602;48.000;9.654;2023-04-01T05:48:34;5.90;99.90
20885;DHT22;10602;48.000;9.654;2023-04-01T05:51:04;5.90;99.90
20885;DHT22;10602;48.000;9.654;2023-04-01T05:53:32;5.90;99.90
20885;DHT22;10602;48.000;9.654;2023-04-01T05:56:01;5.90;99.90
20885;DHT22;10602;48.000;9.654;2023-04-01T05:58:29;6.00;99.90
20885;DHT22;10602;48.000;9.654;2023-04-01T06:01:05;6.00;99.90
20885;DHT22;10602;48.000;9.654;2023-04-01T06:03:33;6.10;95.80
20885;DHT22;10602;48.000;9.654;2023-04-01T06:06:01;6.10;90.10
20885;DHT22;10602;48.000;9.654;2023-04-01T06:08:30;6.10;93.00
20885;DHT22;10602;48.000;9.654;2023-04-01T06:19:22;6.10;99.90
20885;DHT22;10602;48.000;9.654;2023-04-01T06:22:08;6.10;99.90
20885;DHT22;10602;48.000;9.654;2023-04-01T06:24:37;6.00;99.90
20885;DHT22;10602;48.000;9.654;2023-04-01T06:29:58;6.10;99.90
20885;DHT22;10602;48.000;9.654;2023-04-01T06:32:44;6.20;99.90
20885;DHT22;10602;48.000;9.654;2023-04-01T06:41:08;6.20;99.90
20885;DHT22;10602;48.000;9.654;2023-04-01T06:43:59;6.30;99.90
20885;DHT22;10602;48.000;9.654;2023-04-01T06:52:17;6.40;90.60
20885;DHT22;10602;48.000;9.654;2023-04-01T06:54:46;6.40;95.00
20885;DHT22;10602;48.000;9.654;2023-04-01T06:57:34;6.60;90.40
20885;DHT22;10602;48.000;9.654;2023-04-01T06:59:54;6.60;69.20
20885;DHT22;10602;48.000;9.654;2023-04-01T07:02:52;6.60;63.00
20885;DHT22;10602;48.000;9.654;2023-04-01T07:05:17;6.60;55.30
20885;DHT22;10602;48.000;9.654;2023-04-01T07:07:50;6.70;42.90
20885;DHT22;10602;48.000;9.654;2023-04-01T07:13:36;6.80;1.40
20885;DHT22;10602;48.000;9.654;2023-04-01T07:16:12;6.80;17.90
20885;DHT22;10602;48.000;9.654;2023-04-01T07:18:42;6.80;9.40
20885;DHT22;10602;48.000;9.654;2023-04-01T07:21:20;6.90;11.70
20885;DHT22;10602;48.000;9.654;2023-04-01T07:23:46;7.00;1.00
20885;DHT22;10602;48.000;9.654;2023-04-01T07:26:20;7.00;1.00
20885;DHT22;10602;48.000;9.654;2023-04-01T07:28:46;7.00;1.00
20885;DHT22;10602;48.000;9.654;2023-04-01T07:34:11;7.00;1.00
20885;DHT22;10602;48.000;9.654;2023-04-01T07:36:48;7.20;1.00
20885;DHT22;10602;48.000;9.654;2023-04-01T07:39:30;7.40;1.00
20885;DHT22;10602;48.000;9.654;2023-04-01T07:42:06;7.50;1.00
20885;DHT22;10602;48.000;9.654;2023-04-01T07:47:41;7.60;1.00
20885;DHT22;10602;48.000;9.654;2023-04-01T07:53:05;7.50;1.00
20885;DHT22;10602;48.000;9.654;2023-04-01T07:55:41;7.40;1.00
20885;DHT22;10602;48.000;9.654;2023-04-01T08:00:59;7.40;1.00
20885;DHT22;10602;48.000;9.654;2023-04-01T08:03:47;7.40;1.00
20885;DHT22;10602;48.000;9.654;2023-04-01T08:06:20;7.40;1.00
20885;DHT22;10602;48.000;9.654;2023-04-01T08:11:39;7.50;1.00
20885;DHT22;10602;48.000;9.654;2023-04-01T08:14:28;7.40;1.00
20885;DHT22;10602;48.000;9.654;2023-04-01T08:25:24;7.50;1.00
20885;DHT22;10602;48.000;9.654;2023-04-01T09:39:53;7.30;1.00
20885;DHT22;10602;48.000;9.654;2023-04-01T09:42:41;7.30;1.00
20885;DHT22;10602;48.000;9.654;2023-04-01T09:48:15;7.40;1.00
20885;DHT22;10602;48.000;9.654;2023-04-01T09:51:00;7.40;1.00
20885;DHT22;10602;48.000;9.654;2023-04-01T09:53:36;7.30;1.00
20885;DHT22;10602;48.000;9.654;2023-04-01T09:59:20;7.20;1.00
20885;DHT22;10602;48.000;9.654;2023-04-01T10:15:52;7.20;1.00
20885;DHT22;10602;48.000;9.654;2023-04-01T10:32:27;7.10;40.70
20885;DHT22;10602;48.000;9.654;2023-04-01T10:43:23;7.10;41.30
20885;DHT22;10602;48.000;9.654;2023-04-01T10:51:52;7.20;71.90
20885;DHT22;10602;48.000;9.654;2023-04-01T10:54:40;7.20;72.10
20885;DHT22;10602;48.000;9.654;2023-04-01T11:02:53;7.30;11.30
20885;DHT22;10602;48.000;9.654;2023-04-01T11:05:29;7.30;29.10
20885;DHT22;10602;48.000;9.654;2023-04-01T11:08:21;7.40;3.30
20885;DHT22;10602;48.000;9.654;2023-04-01T11:22:08;7.50;7.20
20885;DHT22;10602;48.000;9.654;2023-04-01T11:27:44;7.70;1.00
20885;DHT22;10602;48.000;9.654;2023-04-01T11:30:16;7.70;1.00
20885;DHT22;10602;48.000;9.654;2023-04-01T11:33:03;7.80;1.00
20885;DHT22;10602;48.000;9.654;2023-04-01T11:38:45;7.70;1.00
20885;DHT22;10602;48.000;9.654;2023-04-01T11:44:11;7.60;1.00
20885;DHT22;10602;48.000;9.654;2023-04-01T11:49:33;7.60;1.00
20885;DHT22;10602;48.000;9.654;2023-04-01T11:54:53;7.60;16.20
20885;DHT22;10602;48.000;9.654;2023-04-01T12:10:18;7.70;1.00
20885;DHT22;10602;48.000;9.654;2023-04-01T12:13:07;7.80;1.00
20885;DHT22;10602;48.000;9.654;2023-04-01T12:18:42;7.90;1.00
20885;DHT22;10602;48.000;9.654;2023-04-01T12:21:27;7.90;1.00
20885;DHT22;10602;48.000;9.654;2023-04-01T12:24:19;8.00;1.00
20885;DHT22;10602;48.000;9.654;2023-04-01T12:29:37;8.20;1.00
20885;DHT22;10602;48.000;9.654;2023-04-01T12:32:15;8.30;1.00
20885;DHT22;10602;48.000;9.654;2023-04-01T12:40:32;8.60;1.00
20885;DHT22;10602;48.000;9.654;2023-04-01T12:43:18;8.70;1.00
20885;DHT22;10602;48.000;9.654;2023-04-01T12:46:03;8.90;1.00
20885;DHT22;10602;48.000;9.654;2023-04-01T12:49:05;9.00;1.00
20885;DHT22;10602;48.000;9.654;2023-04-01T12:51:41;9.20;1.00
20885;DHT22;10602;48.000;9.654;2023-04-01T12:54:27;9.20;65.00
20885;DHT22;10602;48.000;9.654;2023-04-01T12:57:18;9.30;99.90
20885;DHT22;10602;48.000;9.654;2023-04-01T13:00:18;9.50;99.90
20885;DHT22;10602;48.000;9.654;2023-04-01T13:05:47;9.30;80.90
20885;DHT22;10602;48.000;9.654;2023-04-01T13:08:21;9.20;1.00
20885;DHT22;10602;48.000;9.654;2023-04-01T13:14:08;9.50;1.00
20885;DHT22;10602;48.000;9.654;2023-04-01T13:27:38;9.60;99.90
20885;DHT22;10602;48.000;9.654;2023-04-01T13:30:19;9.60;1.00
20885;DHT22;10602;48.000;9.654;2023-04-01T13:32:56;9.60;1.00
20885;DHT22;10602;48.000;9.654;2023-04-01T13:35:26;9.50;99.90
20885;DHT22;10602;48.000;9.654;2023-04-01T13:40:33;9.40;1.00
20885;DHT22;10602;48.000;9.654;2023-04-01T13:48:58;9.20;99.90
20885;DHT22;10602;48.000;9.654;2023-04-01T13:54:35;9.20;1.00
20885;DHT22;10602;48.000;9.654;2023-04-01T13:57:33;9.20;1.00
20885;DHT22;10602;48.000;9.654;2023-04-01T14:00:17;9.30;1.00
20885;DHT22;10602;48.000;9.654;2023-04-01T14:08:20;9.00;1.00
20885;DHT22;10602;48.000;9.654;2023-04-01T14:16:22;9.00;1.00
20885;DHT22;10602;48.000;9.654;2023-04-01T14:21:43;9.10;1.00
20885;DHT22;10602;48.000;9.654;2023-04-01T14:24:45;9.10;1.00
20885;DHT22;10602;48.000;9.654;2023-04-01T14:27:21;9.10;1.00
20885;DHT22;10602;48.000;9.654;2023-04-01T14:29:54;9.10;1.00
20885;DHT22;10602;48.000;9.654;2023-04-01T14:32:43;9.00;1.00
20885;DHT22;10602;48.000;9.654;2023-04-01T14:35:30;8.90;1.00
20885;DHT22;10602;48.000;9.654;2023-04-01T14:44:10;8.80;99.90
20885;DHT22;10602;48.000;9.654;2023-04-01T14:49:42;8.70;1.00
20885;DHT22;10602;48.000;9.654;2023-04-01T14:52:25;8.60;1.00
20885;DHT22;10602;48.000;9.654;2023-04-01T14:54:53;8.50;1.00
20885;DHT22;10602;48.000;9.654;2023-04-01T14:57:27;8.60;1.00
20885;DHT22;10602;48.000;9.654;2023-04-01T15:02:37;8.50;1.00
